< < Back
Terminal Aerodrome Forecast


Current Version              Previous Versions:   1  2  3  4  5  6  7  8  9  

Terminal Aerodrome Forecast

376
FTUS42 KFFC 231128
TAFCSG
TAF
KCSG 231128Z 2312/2412 11009G17KT 4SM -RA BR OVC006
     FM231400 12010G19KT 4SM -SHRA BR OVC007
     FM232000 16010G19KT 6SM BR VCSH OVC009
     FM240200 19009KT 4SM BR OVC007=



Latest METAR

001
SAUS70 KWBC 231400
MTRCSG
METAR KCSG 231351Z 12007KT 5SM -RA BR SCT006 BKN011 OVC016 14/13 A2995
RMK AO2 SLP139 P0004 T01390133


USA.gov is the U.S. government's official web portal to all federal, state and local government web resources and services.